Time;durP1;ratioP1;P1;durP2;ratioP2;P2;SDS_P1;SDS_P2;PMS_P1;PMS_P2;Temp;Humidity;BMP_temperature;BMP_pressure;BME280_temperature;BME280_humidity;BME280_pressure;Samples;Min_cycle;Max_cycle;Signal;HPM_P1;HPM_P2
2021/01/17 00:01:42;;;;;;;24.27;17.58;;;2.20;89.40;;;;;;4968792;28;20134;-56
2021/01/17 00:04:08;;;;;;;25.33;17.45;;;2.20;89.30;;;;;;4979440;28;20031;-58
2021/01/17 00:06:33;;;;;;;21.60;16.63;;;2.20;89.40;;;;;;4956834;28;20042;-58
2021/01/17 00:08:59;;;;;;;20.08;16.30;;;2.20;89.40;;;;;;4972834;28;20035;-59
2021/01/17 00:11:24;;;;;;;24.55;16.70;;;2.20;89.30;;;;;;4967217;28;20045;-57
2021/01/17 00:13:50;;;;;;;22.35;16.73;;;2.20;89.40;;;;;;4973185;28;20031;-57
2021/01/17 00:16:15;;;;;;;22.90;16.55;;;2.20;89.40;;;;;;4978649;28;20058;-57
2021/01/17 00:18:41;;;;;;;23.58;16.95;;;2.20;89.40;;;;;;4966861;28;20069;-56
2021/01/17 00:21:06;;;;;;;22.58;17.08;;;2.20;89.40;;;;;;4976909;28;20721;-57
2021/01/17 00:23:32;;;;;;;21.27;16.83;;;2.20;89.40;;;;;;4972836;28;20082;-59
2021/01/17 00:25:57;;;;;;;23.05;17.27;;;2.20;89.40;;;;;;4946767;28;20038;-59
2021/01/17 00:28:23;;;;;;;23.45;16.40;;;2.20;89.40;;;;;;4971235;28;20020;-59
2021/01/17 00:30:48;;;;;;;22.75;17.33;;;2.20;89.40;;;;;;4945549;28;20046;-58
2021/01/17 00:33:14;;;;;;;21.77;16.83;;;2.20;89.40;;;;;;4966287;28;20486;-56
2021/01/17 00:35:39;;;;;;;20.98;16.20;;;2.20;89.30;;;;;;4973373;28;20050;-57
2021/01/17 00:38:05;;;;;;;19.98;16.08;;;2.20;89.40;;;;;;4981810;28;20046;-59
2021/01/17 00:40:30;;;;;;;21.13;16.48;;;2.30;89.50;;;;;;4975422;28;20029;-58
2021/01/17 00:42:56;;;;;;;22.50;17.33;;;2.20;89.40;;;;;;4976430;28;20145;-58
2021/01/17 00:45:24;;;;;;;21.65;16.60;;;2.20;89.40;;;;;;4972545;28;20026;-59
2021/01/17 00:47:50;;;;;;;20.52;15.65;;;2.20;89.40;;;;;;4992046;28;20030;-57
2021/01/17 00:50:18;;;;;;;21.67;16.17;;;2.30;89.50;;;;;;4978277;28;20034;-58
2021/01/17 00:52:50;;;;;;;20.10;16.10;;;2.20;89.30;;;;;;4991240;28;20058;-58
2021/01/17 00:55:15;;;;;;;21.05;16.75;;;2.20;89.30;;;;;;4974671;28;20027;-58
2021/01/17 00:57:41;;;;;;;23.65;16.48;;;2.20;89.40;;;;;;4992624;28;20502;-58
2021/01/17 01:00:09;;;;;;;21.33;16.65;;;2.20;89.40;;;;;;4991966;28;20030;-58
2021/01/17 01:02:35;;;;;;;21.00;15.95;;;2.20;89.30;;;;;;4973189;28;20066;-59
2021/01/17 01:05:02;;;;;;;20.73;15.57;;;2.20;89.40;;;;;;4967719;28;20039;-57
2021/01/17 01:07:27;;;;;;;21.80;16.67;;;2.30;89.50;;;;;;4992315;28;20106;-59
2021/01/17 01:09:53;;;;;;;21.30;15.48;;;2.30;89.50;;;;;;4954976;28;20035;-57
2021/01/17 01:12:18;;;;;;;21.05;15.65;;;2.30;89.50;;;;;;4975599;28;20042;-59
2021/01/17 01:14:44;;;;;;;21.67;15.85;;;2.30;90.00;;;;;;4983718;28;20029;-58
2021/01/17 01:17:09;;;;;;;22.10;16.33;;;2.30;89.40;;;;;;4990704;28;20054;-57
2021/01/17 01:19:35;;;;;;;21.35;16.42;;;2.30;89.50;;;;;;4973485;28;20038;-57
2021/01/17 01:22:02;;;;;;;19.63;15.68;;;2.30;89.40;;;;;;4974866;28;20076;-56
2021/01/17 01:24:29;;;;;;;20.60;15.20;;;2.30;89.40;;;;;;4981538;28;20143;-56
2021/01/17 01:26:55;;;;;;;22.83;16.15;;;2.30;89.40;;;;;;4974452;28;20033;-58
2021/01/17 01:29:20;;;;;;;22.98;16.88;;;2.30;89.40;;;;;;4984424;28;20030;-57
2021/01/17 01:31:46;;;;;;;22.02;15.80;;;2.30;89.50;;;;;;4973795;28;20038;-56
2021/01/17 01:34:11;;;;;;;20.92;15.60;;;2.30;89.40;;;;;;4979838;28;20120;-59
2021/01/17 01:36:38;;;;;;;18.88;15.60;;;2.30;89.40;;;;;;4991709;28;20418;-56
2021/01/17 01:39:07;;;;;;;20.35;15.57;;;2.30;89.30;;;;;;4965604;28;20015;-57
2021/01/17 01:41:34;;;;;;;20.00;15.35;;;2.30;89.40;;;;;;4988802;28;20034;-58
2021/01/17 01:43:59;;;;;;;20.42;16.02;;;2.30;89.40;;;;;;4980681;28;20125;-56
2021/01/17 01:46:26;;;;;;;19.73;15.77;;;2.40;89.50;;;;;;4971999;28;20594;-57
2021/01/17 01:48:52;;;;;;;20.55;15.55;;;2.30;89.40;;;;;;4947680;28;20058;-59
2021/01/17 01:51:18;;;;;;;19.65;14.98;;;2.30;89.50;;;;;;4984743;28;20117;-58
2021/01/17 01:53:44;;;;;;;17.58;14.32;;;2.40;89.50;;;;;;4982862;28;20026;-59
2021/01/17 01:56:09;;;;;;;19.60;14.68;;;2.30;89.50;;;;;;4983388;28;20046;-56
2021/01/17 01:58:38;;;;;;;20.90;15.45;;;2.30;89.50;;;;;;4983284;28;20478;-58
2021/01/17 02:01:04;;;;;;;19.05;15.43;;;2.30;89.40;;;;;;4991139;28;20548;-57
2021/01/17 02:03:30;;;;;;;18.63;15.52;;;2.40;89.50;;;;;;4971961;28;20384;-59
2021/01/17 02:05:55;;;;;;;18.33;14.40;;;2.30;90.00;;;;;;4970530;28;20026;-58
2021/01/17 02:08:48;;;;;;;18.55;14.23;;;2.30;89.50;;;;;;4954553;28;20078;-56
2021/01/17 02:11:33;;;;;;;18.70;14.07;;;2.30;89.50;;;;;;4984317;28;20037;-57
2021/01/17 02:14:41;;;;;;;17.73;13.88;;;2.30;89.40;;;;;;4977500;28;20041;-58
2021/01/17 02:17:09;;;;;;;18.73;14.80;;;2.30;89.40;;;;;;4955549;28;20093;-57
2021/01/17 02:19:46;;;;;;;19.55;15.27;;;2.30;89.40;;;;;;4968761;28;20042;-58
2021/01/17 02:22:12;;;;;;;17.98;14.15;;;2.30;89.50;;;;;;4980483;28;20034;-58
2021/01/17 02:24:51;;;;;;;17.77;13.75;;;2.30;89.50;;;;;;4970734;28;20066;-58
2021/01/17 02:27:17;;;;;;;18.70;13.90;;;2.30;89.60;;;;;;4957382;28;20501;-59
2021/01/17 02:29:45;;;;;;;19.77;14.02;;;2.30;89.60;;;;;;4977942;28;20035;-58
2021/01/17 02:32:10;;;;;;;17.60;13.50;;;2.30;89.50;;;;;;4966489;28;20022;-57
2021/01/17 02:34:36;;;;;;;17.98;14.15;;;2.40;89.70;;;;;;4977191;28;20101;-58
2021/01/17 02:37:14;;;;;;;16.42;13.23;;;2.30;89.80;;;;;;4971534;28;20538;-57
2021/01/17 02:39:51;;;;;;;16.55;13.52;;;2.30;89.90;;;;;;4962542;28;20027;-56
2021/01/17 02:42:16;;;;;;;16.95;13.32;;;2.30;90.00;;;;;;4957554;28;20027;-56
2021/01/17 02:44:42;;;;;;;18.45;13.02;;;2.30;90.40;;;;;;4979368;28;20035;-60
2021/01/17 02:47:07;;;;;;;16.95;13.20;;;2.30;90.00;;;;;;4975197;28;20085;-56
2021/01/17 02:49:33;;;;;;;17.10;13.25;;;2.30;90.00;;;;;;4949583;28;20070;-59
2021/01/17 02:51:58;;;;;;;16.27;12.20;;;2.40;90.10;;;;;;4948041;28;20117;-59
2021/01/17 02:54:31;;;;;;;17.27;12.35;;;2.30;90.20;;;;;;4974279;28;20027;-57
2021/01/17 02:57:04;;;;;;;16.55;12.13;;;2.30;90.10;;;;;;4956864;28;20118;-59
2021/01/17 02:59:37;;;;;;;16.48;12.60;;;2.30;90.10;;;;;;4977810;28;20483;-57
2021/01/17 03:02:03;;;;;;;13.93;11.68;;;2.30;90.20;;;;;;4968700;28;20566;-58
2021/01/17 03:04:33;;;;;;;17.27;11.65;;;2.30;90.30;;;;;;4966127;28;20117;-58
2021/01/17 03:07:01;;;;;;;17.58;13.85;;;2.40;90.30;;;;;;4985000;28;20505;-56
2021/01/17 03:09:30;;;;;;;16.27;12.18;;;2.30;90.30;;;;;;4957326;28;20326;-59
2021/01/17 03:12:01;;;;;;;14.50;12.07;;;2.30;90.30;;;;;;4969404;28;20418;-59
2021/01/17 03:14:26;;;;;;;18.48;12.57;;;2.30;90.30;;;;;;4948927;28;20031;-60
2021/01/17 03:16:52;;;;;;;17.55;13.18;;;2.30;90.40;;;;;;4983309;28;20029;-60
2021/01/17 03:19:17;;;;;;;15.60;12.35;;;2.40;90.40;;;;;;4956748;28;20425;-57
2021/01/17 03:21:43;;;;;;;14.00;10.88;;;2.30;90.30;;;;;;4984024;28;20098;-59
2021/01/17 03:24:08;;;;;;;15.23;11.65;;;2.40;90.40;;;;;;4957323;28;20490;-58
2021/01/17 03:26:34;;;;;;;15.50;12.45;;;2.40;90.50;;;;;;4982016;28;20046;-56
2021/01/17 03:28:59;;;;;;;14.60;11.60;;;2.30;90.40;;;;;;4956731;28;20046;-59
2021/01/17 03:31:25;;;;;;;16.40;12.65;;;2.30;90.40;;;;;;4980077;28;20030;-56
2021/01/17 03:33:50;;;;;;;13.80;11.60;;;2.30;90.50;;;;;;4961812;28;20426;-59
2021/01/17 03:36:16;;;;;;;14.45;11.75;;;2.30;90.50;;;;;;4970135;28;20471;-58
2021/01/17 03:38:41;;;;;;;14.77;11.70;;;2.40;90.60;;;;;;4968470;28;20031;-57
2021/01/17 03:41:11;;;;;;;15.35;11.80;;;2.40;90.60;;;;;;4976839;28;20036;-59
2021/01/17 03:43:36;;;;;;;13.25;9.93;;;2.40;90.60;;;;;;4970103;28;20031;-58
2021/01/17 03:46:02;;;;;;;13.13;10.65;;;2.40;90.70;;;;;;4970389;28;20031;-57
2021/01/17 03:48:27;;;;;;;12.93;10.48;;;2.40;90.70;;;;;;4986429;28;20031;-56
2021/01/17 03:50:53;;;;;;;14.88;11.73;;;2.40;90.80;;;;;;4967261;28;20035;-59
2021/01/17 03:53:18;;;;;;;13.38;10.73;;;2.40;90.70;;;;;;4968390;28;20035;-57
2021/01/17 03:55:44;;;;;;;13.45;10.88;;;2.40;90.60;;;;;;4969318;28;20494;-56
2021/01/17 03:58:09;;;;;;;13.55;10.60;;;2.40;90.60;;;;;;4966694;28;20404;-57
2021/01/17 04:00:35;;;;;;;14.80;11.75;;;2.50;90.60;;;;;;4949554;28;20031;-56
2021/01/17 04:03:00;;;;;;;13.35;10.15;;;2.40;90.60;;;;;;4969911;28;20030;-57
2021/01/17 04:05:26;;;;;;;14.70;11.07;;;2.40;90.60;;;;;;4966679;28;20023;-57
2021/01/17 04:07:51;;;;;;;13.75;11.43;;;2.40;90.50;;;;;;4974325;28;20050;-56
2021/01/17 04:10:17;;;;;;;13.63;10.30;;;2.40;90.50;;;;;;4964159;28;20026;-57
2021/01/17 04:12:42;;;;;;;13.88;11.00;;;2.40;90.50;;;;;;4951112;28;20035;-59
2021/01/17 04:15:08;;;;;;;12.70;9.95;;;2.40;90.70;;;;;;4970199;28;20027;-56
2021/01/17 04:17:34;;;;;;;13.55;10.70;;;2.40;90.70;;;;;;4972552;28;20027;-58
2021/01/17 04:19:59;;;;;;;12.07;9.85;;;2.40;90.70;;;;;;4971633;28;20482;-58
2021/01/17 04:22:25;;;;;;;11.52;9.45;;;2.40;90.80;;;;;;4987046;28;20050;-57
2021/01/17 04:24:51;;;;;;;12.48;10.07;;;2.40;90.80;;;;;;4954865;28;20542;-58
2021/01/17 04:27:16;;;;;;;11.57;9.55;;;2.40;90.90;;;;;;4983134;28;20106;-57
2021/01/17 04:29:42;;;;;;;10.90;9.23;;;2.40;90.90;;;;;;4966550;28;20586;-59
2021/01/17 04:32:07;;;;;;;11.27;9.00;;;2.40;91.00;;;;;;4981041;28;20031;-56
2021/01/17 04:34:33;;;;;;;11.48;9.23;;;2.40;91.00;;;;;;4988763;28;20050;-59
2021/01/17 04:36:59;;;;;;;12.85;9.02;;;2.40;91.10;;;;;;4989016;28;20023;-57
2021/01/17 04:39:24;;;;;;;13.10;9.98;;;2.40;91.10;;;;;;4982221;28;20023;-59
2021/01/17 04:41:50;;;;;;;12.00;9.20;;;2.40;91.10;;;;;;4960362;28;20166;-56
2021/01/17 04:44:20;;;;;;;11.10;8.52;;;2.40;91.10;;;;;;4976967;28;20580;-57
2021/01/17 04:46:45;;;;;;;10.20;8.73;;;2.40;91.10;;;;;;4975705;28;20098;-57
2021/01/17 04:49:11;;;;;;;10.77;8.63;;;2.40;91.10;;;;;;4970225;28;21225;-58
2021/01/17 04:51:36;;;;;;;10.00;8.43;;;2.40;91.10;;;;;;4955577;28;20106;-59
2021/01/17 04:54:04;;;;;;;11.77;8.93;;;2.40;91.20;;;;;;4968248;28;20020;-57
2021/01/17 04:56:30;;;;;;;10.48;8.70;;;2.40;91.10;;;;;;4954248;28;20178;-56
2021/01/17 04:59:09;;;;;;;10.23;8.02;;;2.40;91.20;;;;;;4960866;28;20548;-56
2021/01/17 05:01:46;;;;;;;10.20;8.15;;;2.40;91.30;;;;;;4977671;28;20031;-56
2021/01/17 05:04:36;;;;;;;9.48;7.50;;;2.40;91.30;;;;;;4966962;28;20023;-58
2021/01/17 05:07:21;;;;;;;12.63;9.18;;;2.50;91.20;;;;;;4966716;28;20046;-59
2021/01/17 05:10:11;;;;;;;9.73;8.15;;;2.40;91.30;;;;;;4957189;28;20026;-57
2021/01/17 05:12:40;;;;;;;9.57;8.20;;;2.50;91.30;;;;;;4979299;28;20052;-56
2021/01/17 05:15:07;;;;;;;9.65;7.75;;;2.40;91.30;;;;;;4977396;28;20118;-58
2021/01/17 05:17:40;;;;;;;10.35;8.02;;;2.40;91.20;;;;;;4971493;28;20038;-56
2021/01/17 05:20:06;;;;;;;10.18;7.70;;;2.50;91.30;;;;;;4969888;28;20039;-56
2021/01/17 05:22:32;;;;;;;8.75;7.13;;;2.40;91.40;;;;;;4975213;28;20061;-56
2021/01/17 05:24:58;;;;;;;8.38;6.80;;;2.40;91.50;;;;;;4978328;28;20039;-58
2021/01/17 05:27:23;;;;;;;8.65;6.30;;;2.40;91.60;;;;;;4979047;28;20027;-58
2021/01/17 05:29:49;;;;;;;9.85;8.05;;;2.50;91.80;;;;;;4978920;28;20023;-58
2021/01/17 05:32:15;;;;;;;9.23;7.40;;;2.40;91.70;;;;;;4964191;28;20121;-56
2021/01/17 05:34:41;;;;;;;10.50;7.28;;;2.40;91.70;;;;;;4954218;28;20051;-56
2021/01/17 05:37:07;;;;;;;9.35;7.28;;;2.40;91.70;;;;;;4953554;28;20039;-59
2021/01/17 05:39:52;;;;;;;9.35;7.28;;;2.40;91.70;;;;;;4953556;28;20027;-58
2021/01/17 05:42:27;;;;;;;8.55;6.90;;;2.40;91.90;;;;;;4963748;28;20034;-57
2021/01/17 05:45:12;;;;;;;7.93;6.53;;;2.40;92.00;;;;;;4959422;28;20055;-58
2021/01/17 05:47:37;;;;;;;7.95;6.47;;;2.40;92.20;;;;;;4958515;28;20028;-59
2021/01/17 05:50:08;;;;;;;7.70;6.00;;;2.40;92.30;;;;;;4940613;28;20019;-56
2021/01/17 05:52:34;;;;;;;7.22;5.90;;;2.40;92.30;;;;;;4977054;28;20137;-58
2021/01/17 05:55:00;;;;;;;7.70;6.38;;;2.50;92.30;;;;;;4976719;28;20030;-57
2021/01/17 05:57:25;;;;;;;8.38;6.25;;;2.40;92.40;;;;;;4966812;28;20027;-57
2021/01/17 05:59:51;;;;;;;7.25;5.65;;;2.40;92.40;;;;;;4967002;28;20098;-58
2021/01/17 06:02:19;;;;;;;6.55;5.72;;;2.40;92.40;;;;;;4977838;28;20030;-58
2021/01/17 06:05:04;;;;;;;8.07;6.07;;;2.40;92.40;;;;;;4949691;28;20034;-59
2021/01/17 06:07:30;;;;;;;6.40;5.15;;;2.50;92.50;;;;;;4974811;28;20162;-58
2021/01/17 06:10:08;;;;;;;6.00;5.40;;;2.50;92.60;;;;;;4960459;28;20423;-58
2021/01/17 06:12:38;;;;;;;9.85;5.05;;;2.50;92.70;;;;;;4968637;28;20038;-57
2021/01/17 06:15:11;;;;;;;6.15;4.78;;;2.50;92.60;;;;;;4966152;28;20020;-57
2021/01/17 06:17:45;;;;;;;5.85;4.93;;;2.50;92.60;;;;;;4957868;28;20046;-57
2021/01/17 06:20:17;;;;;;;5.72;4.28;;;2.50;92.60;;;;;;4978297;28;20031;-57
2021/01/17 06:22:42;;;;;;;5.43;4.82;;;2.50;92.60;;;;;;4957271;28;20027;-57
2021/01/17 06:25:08;;;;;;;6.47;4.80;;;2.50;92.60;;;;;;4978949;28;20058;-58
2021/01/17 06:27:34;;;;;;;5.10;4.45;;;2.50;92.50;;;;;;4959036;28;20034;-57
2021/01/17 06:29:59;;;;;;;5.45;4.53;;;2.50;92.70;;;;;;4966296;28;20027;-56
2021/01/17 06:32:29;;;;;;;5.50;4.03;;;2.50;92.70;;;;;;4966952;28;20467;-57
2021/01/17 06:34:56;;;;;;;6.03;4.95;;;2.50;92.70;;;;;;4977181;28;20119;-57
2021/01/17 06:37:23;;;;;;;5.00;4.35;;;2.50;92.80;;;;;;4958702;28;20027;-59
2021/01/17 06:39:58;;;;;;;5.00;4.45;;;2.50;92.60;;;;;;4959251;28;20050;-56
2021/01/17 06:42:24;;;;;;;5.25;4.28;;;2.50;92.80;;;;;;4952628;28;20475;-57
2021/01/17 06:44:50;;;;;;;4.70;4.22;;;2.50;92.80;;;;;;4952595;28;20041;-57
2021/01/17 06:47:20;;;;;;;5.75;4.47;;;2.60;92.70;;;;;;4965493;28;20034;-58
2021/01/17 06:49:46;;;;;;;6.05;4.72;;;2.50;92.80;;;;;;4967307;28;20042;-58
2021/01/17 06:52:14;;;;;;;4.55;4.00;;;2.50;92.80;;;;;;4967239;28;20031;-59
2021/01/17 06:54:41;;;;;;;4.57;3.75;;;2.50;92.80;;;;;;4953799;28;20029;-59
2021/01/17 06:57:07;;;;;;;4.97;4.47;;;2.60;92.90;;;;;;4955877;28;20071;-58
2021/01/17 06:59:43;;;;;;;4.72;3.72;;;2.60;92.80;;;;;;4975609;28;20051;-57
2021/01/17 07:02:18;;;;;;;4.35;3.78;;;2.60;92.80;;;;;;4975040;28;20374;-57
2021/01/17 07:04:52;;;;;;;4.33;3.83;;;2.60;92.80;;;;;;4961865;28;20081;-56
2021/01/17 07:07:40;;;;;;;4.70;3.97;;;2.60;92.90;;;;;;4961184;28;20386;-58
2021/01/17 07:10:07;;;;;;;5.03;3.63;;;2.60;92.90;;;;;;4967562;28;20034;-58
2021/01/17 07:12:37;;;;;;;4.40;3.17;;;2.60;92.80;;;;;;4975834;28;20026;-58
2021/01/17 07:15:07;;;;;;;3.88;3.47;;;2.60;92.80;;;;;;4980287;28;20061;-59
2021/01/17 07:17:38;;;;;;;4.75;3.75;;;2.60;92.80;;;;;;4975293;28;20055;-56
2021/01/17 07:20:13;;;;;;;3.15;2.83;;;2.60;92.80;;;;;;4978987;28;20554;-58
2021/01/17 07:22:39;;;;;;;4.00;3.50;;;2.60;93.00;;;;;;4960015;28;20114;-59
2021/01/17 07:25:06;;;;;;;3.90;3.08;;;2.60;92.90;;;;;;4979614;28;20035;-60
2021/01/17 07:27:56;;;;;;;3.80;3.15;;;2.60;92.90;;;;;;4949705;28;20557;-57
2021/01/17 07:30:46;;;;;;;4.32;3.53;;;2.60;92.90;;;;;;4962025;28;20455;-59
2021/01/17 07:33:12;;;;;;;4.20;3.40;;;2.60;93.00;;;;;;4943160;28;20411;-59
2021/01/17 07:35:39;;;;;;;3.90;3.08;;;2.60;93.00;;;;;;4972081;28;20055;-58
2021/01/17 07:38:10;;;;;;;4.10;2.97;;;2.60;92.90;;;;;;4978087;28;20112;-58
2021/01/17 07:40:50;;;;;;;4.07;3.40;;;2.60;93.00;;;;;;4966923;28;20034;-59
2021/01/17 07:43:15;;;;;;;4.07;3.35;;;2.60;93.20;;;;;;4946989;28;20086;-58
2021/01/17 07:45:41;;;;;;;3.17;2.75;;;2.60;93.10;;;;;;4952968;28;20023;-59
2021/01/17 07:48:08;;;;;;;3.78;3.00;;;2.60;93.20;;;;;;4958892;28;20056;-57
2021/01/17 07:50:38;;;;;;;3.95;3.20;;;2.60;93.10;;;;;;4964824;28;20027;-58
2021/01/17 07:53:05;;;;;;;3.60;2.88;;;2.70;93.10;;;;;;4967538;28;20123;-58
2021/01/17 07:55:31;;;;;;;4.45;3.25;;;2.60;93.10;;;;;;4950725;28;20023;-56
2021/01/17 07:57:56;;;;;;;3.25;2.90;;;2.60;93.20;;;;;;4961110;28;20027;-57
2021/01/17 08:00:26;;;;;;;3.35;2.85;;;2.70;93.20;;;;;;4976261;28;20028;-57
2021/01/17 08:02:51;;;;;;;2.50;2.30;;;2.70;93.40;;;;;;4962963;28;20447;-57
2021/01/17 08:05:17;;;;;;;2.90;2.50;;;2.70;93.30;;;;;;4969626;28;20026;-58
2021/01/17 08:07:42;;;;;;;3.80;3.00;;;2.70;93.40;;;;;;4953970;28;20023;-57
2021/01/17 08:10:08;;;;;;;3.05;2.75;;;2.70;93.20;;;;;;4966938;28;20105;-57
2021/01/17 08:12:35;;;;;;;2.65;2.35;;;2.70;93.20;;;;;;4965869;28;20082;-57
2021/01/17 08:15:17;;;;;;;3.13;2.50;;;2.70;93.30;;;;;;4967991;28;20035;-56
2021/01/17 08:17:43;;;;;;;2.90;2.60;;;2.70;93.30;;;;;;4981888;28;20015;-56
2021/01/17 08:20:08;;;;;;;3.00;2.28;;;2.70;93.30;;;;;;4960201;28;20092;-58
2021/01/17 08:22:34;;;;;;;2.63;2.42;;;2.90;93.40;;;;;;4985809;28;20439;-57
2021/01/17 08:25:00;;;;;;;2.40;2.17;;;2.70;93.40;;;;;;4965539;28;20031;-57
2021/01/17 08:27:34;;;;;;;2.55;2.35;;;2.70;93.30;;;;;;4952767;28;20066;-57
2021/01/17 08:30:03;;;;;;;3.05;2.30;;;2.70;93.30;;;;;;4970144;28;20097;-57
2021/01/17 08:32:35;;;;;;;2.72;2.47;;;2.70;93.30;;;;;;4970978;28;20023;-57
2021/01/17 08:35:18;;;;;;;2.83;2.10;;;2.70;93.30;;;;;;4959171;28;20047;-57
2021/01/17 08:38:10;;;;;;;2.38;2.05;;;2.70;93.20;;;;;;4956990;28;20069;-57
2021/01/17 08:40:36;;;;;;;2.90;2.42;;;2.80;93.20;;;;;;4962123;28;20034;-57
2021/01/17 08:43:05;;;;;;;2.58;2.13;;;2.70;93.20;;;;;;4965845;28;20423;-57
2021/01/17 08:45:47;;;;;;;2.03;1.83;;;2.70;93.20;;;;;;4963867;28;20062;-57
2021/01/17 08:48:16;;;;;;;2.10;1.90;;;2.70;93.10;;;;;;4978163;28;20022;-56
2021/01/17 08:50:42;;;;;;;1.70;1.60;;;2.70;93.20;;;;;;4969781;28;20031;-56
2021/01/17 08:53:24;;;;;;;2.80;2.33;;;2.80;93.20;;;;;;4974459;28;20027;-56
2021/01/17 08:55:54;;;;;;;2.50;2.30;;;2.80;93.30;;;;;;4983515;28;20467;-57
2021/01/17 08:58:26;;;;;;;2.75;2.20;;;2.80;93.20;;;;;;4979948;28;20363;-56
2021/01/17 09:00:51;;;;;;;2.80;1.92;;;2.80;93.20;;;;;;4968377;28;20126;-56
2021/01/17 09:03:42;;;;;;;1.88;1.70;;;2.80;93.40;;;;;;4969966;28;20117;-57
2021/01/17 09:06:19;;;;;;;2.00;1.80;;;2.80;93.30;;;;;;4968552;28;20031;-56
2021/01/17 09:08:48;;;;;;;2.05;1.85;;;2.80;93.30;;;;;;4973378;28;20034;-57
2021/01/17 09:11:28;;;;;;;2.13;1.92;;;2.80;93.30;;;;;;4961210;28;20027;-57
2021/01/17 09:14:20;;;;;;;1.60;1.50;;;2.80;93.50;;;;;;4973796;28;20035;-57
2021/01/17 09:16:53;;;;;;;2.30;1.83;;;2.80;93.60;;;;;;4968988;28;20295;-57
2021/01/17 09:19:20;;;;;;;1.65;1.55;;;2.80;93.40;;;;;;4950217;28;20051;-56
2021/01/17 09:21:49;;;;;;;2.75;1.50;;;2.80;93.80;;;;;;4968702;28;20039;-56
2021/01/17 09:24:17;;;;;;;1.80;1.55;;;2.80;93.50;;;;;;4979247;28;20022;-57
2021/01/17 09:26:47;;;;;;;1.50;1.38;;;2.80;93.60;;;;;;4988707;28;20018;-56
2021/01/17 09:29:39;;;;;;;2.05;1.70;;;2.80;93.50;;;;;;4958411;28;20023;-56
2021/01/17 09:32:17;;;;;;;2.67;1.92;;;2.80;93.60;;;;;;4952389;28;20034;-57
2021/01/17 09:34:51;;;;;;;1.67;1.30;;;2.90;93.60;;;;;;4948606;28;20047;-57
2021/01/17 09:37:18;;;;;;;1.60;1.50;;;2.90;93.50;;;;;;4950035;28;20486;-56
2021/01/17 09:39:47;;;;;;;1.20;1.10;;;2.90;93.40;;;;;;4958892;28;20082;-56
2021/01/17 09:42:14;;;;;;;1.65;1.50;;;2.80;93.60;;;;;;4972238;28;20034;-58
2021/01/17 09:44:40;;;;;;;1.88;1.65;;;2.80;93.60;;;;;;4986620;28;20065;-57
2021/01/17 09:47:16;;;;;;;1.75;1.55;;;2.90;93.70;;;;;;4964937;28;20519;-56
2021/01/17 09:49:41;;;;;;;1.20;1.10;;;2.90;93.60;;;;;;4966655;28;20032;-57
2021/01/17 09:52:14;;;;;;;1.75;1.45;;;2.90;93.70;;;;;;4970578;28;20178;-57
2021/01/17 09:54:40;;;;;;;1.67;1.45;;;2.90;93.70;;;;;;4987931;28;20035;-58
2021/01/17 09:57:16;;;;;;;1.60;1.50;;;2.90;93.80;;;;;;4948757;28;20038;-57
2021/01/17 09:59:41;;;;;;;1.33;1.23;;;2.90;93.70;;;;;;4961941;28;20039;-57
2021/01/17 10:02:07;;;;;;;1.50;1.40;;;2.90;93.60;;;;;;4969173;28;20027;-57
2021/01/17 10:04:32;;;;;;;1.50;1.23;;;2.90;93.60;;;;;;4954407;28;20031;-57
2021/01/17 10:06:58;;;;;;;1.70;1.45;;;2.90;93.60;;;;;;4968304;28;20114;-57
2021/01/17 10:09:25;;;;;;;1.92;1.30;;;3.00;93.60;;;;;;4983804;28;20026;-57
2021/01/17 10:11:58;;;;;;;1.88;1.67;;;3.00;93.50;;;;;;4984569;28;20047;-57
2021/01/17 10:14:25;;;;;;;1.58;1.35;;;3.00;93.40;;;;;;4965954;28;20026;-57
2021/01/17 10:16:52;;;;;;;2.08;1.40;;;2.90;93.40;;;;;;4979516;28;20027;-56
2021/01/17 10:19:25;;;;;;;1.30;1.20;;;3.00;93.50;;;;;;4970090;28;20042;-57
2021/01/17 10:21:51;;;;;;;1.30;1.20;;;3.00;93.60;;;;;;4959730;28;20039;-57
2021/01/17 10:24:23;;;;;;;1.52;1.42;;;3.00;93.60;;;;;;4984952;28;20030;-57
2021/01/17 10:26:51;;;;;;;1.85;1.58;;;3.00;93.60;;;;;;4966902;28;20035;-57
2021/01/17 10:29:19;;;;;;;1.35;1.25;;;3.00;93.70;;;;;;4963637;28;20019;-57
2021/01/17 10:31:45;;;;;;;1.40;1.25;;;3.00;93.70;;;;;;4972017;28;20019;-57
2021/01/17 10:34:10;;;;;;;1.52;1.30;;;3.00;93.70;;;;;;4958713;28;20518;-58
2021/01/17 10:36:36;;;;;;;1.23;1.13;;;3.00;93.70;;;;;;4978976;28;20030;-57
2021/01/17 10:39:01;;;;;;;1.40;1.30;;;3.00;93.70;;;;;;4947824;28;20031;-57
2021/01/17 10:41:27;;;;;;;1.40;1.30;;;3.00;93.70;;;;;;4981262;28;20026;-57
2021/01/17 10:44:09;;;;;;;1.70;1.60;;;3.00;93.50;;;;;;4967679;28;20030;-57
2021/01/17 10:46:36;;;;;;;1.10;1.00;;;3.10;93.60;;;;;;4954872;28;20035;-57
2021/01/17 10:49:05;;;;;;;1.30;1.20;;;3.00;93.70;;;;;;4966610;28;20079;-57
2021/01/17 10:51:41;;;;;;;1.10;1.00;;;3.00;93.60;;;;;;4981286;28;20038;-57
2021/01/17 10:54:06;;;;;;;2.15;1.48;;;3.10;93.60;;;;;;4966994;28;20031;-57
2021/01/17 10:56:32;;;;;;;1.40;1.30;;;3.10;93.60;;;;;;4951657;28;20038;-57
2021/01/17 10:58:58;;;;;;;1.92;1.52;;;3.00;93.70;;;;;;4982165;28;20019;-57
2021/01/17 11:01:30;;;;;;;1.98;1.42;;;3.10;93.80;;;;;;4986283;28;20082;-57
2021/01/17 11:03:56;;;;;;;2.15;1.75;;;3.00;93.80;;;;;;4967686;28;20027;-57
2021/01/17 11:06:23;;;;;;;1.50;1.17;;;3.10;93.80;;;;;;4947218;28;20616;-57
2021/01/17 11:08:56;;;;;;;2.10;1.42;;;3.10;93.80;;;;;;4982381;28;20058;-57
2021/01/17 11:11:27;;;;;;;1.92;1.45;;;3.10;93.60;;;;;;4947367;28;20502;-57
2021/01/17 11:14:00;;;;;;;1.58;1.30;;;3.10;93.60;;;;;;4979444;28;20031;-56
2021/01/17 11:16:39;;;;;;;2.33;1.75;;;3.10;93.50;;;;;;4964105;28;20023;-57
2021/01/17 11:19:05;;;;;;;2.42;1.60;;;3.10;93.50;;;;;;4980750;28;20039;-56
2021/01/17 11:21:31;;;;;;;1.63;1.38;;;3.10;93.40;;;;;;4986527;28;20026;-58
2021/01/17 11:23:56;;;;;;;1.58;1.33;;;3.10;93.50;;;;;;4969353;28;20080;-57
2021/01/17 11:26:22;;;;;;;1.30;1.20;;;3.20;93.50;;;;;;4972543;28;20150;-57
2021/01/17 11:28:55;;;;;;;1.50;1.40;;;3.10;93.40;;;;;;4938712;28;20369;-57
2021/01/17 11:31:21;;;;;;;2.30;1.67;;;3.20;93.40;;;;;;4960916;28;20035;-56
2021/01/17 11:33:47;;;;;;;1.70;1.50;;;3.20;93.50;;;;;;4972785;28;20058;-59
2021/01/17 11:36:19;;;;;;;2.60;1.88;;;3.20;93.50;;;;;;4970948;28;20033;-57
2021/01/17 11:38:58;;;;;;;1.45;1.20;;;3.20;93.60;;;;;;4945720;28;20027;-57
2021/01/17 11:41:39;;;;;;;1.75;1.50;;;3.20;93.50;;;;;;4985704;28;20010;-57
2021/01/17 11:44:12;;;;;;;1.90;1.60;;;3.20;93.50;;;;;;4963112;28;20032;-57
2021/01/17 11:46:38;;;;;;;1.63;1.40;;;3.20;93.40;;;;;;4952681;28;20030;-57
2021/01/17 11:49:03;;;;;;;1.75;1.50;;;3.20;93.50;;;;;;4965881;28;20504;-57
2021/01/17 11:51:30;;;;;;;1.92;1.60;;;3.20;93.50;;;;;;4989807;28;20029;-57
2021/01/17 11:54:06;;;;;;;2.67;1.70;;;3.20;93.50;;;;;;4953075;28;20038;-56
2021/01/17 11:56:32;;;;;;;1.40;1.30;;;3.20;93.60;;;;;;4952584;28;20023;-57
2021/01/17 11:58:58;;;;;;;1.88;1.42;;;3.30;93.60;;;;;;4962779;28;20499;-57
2021/01/17 12:01:26;;;;;;;2.00;1.80;;;3.20;93.60;;;;;;4936685;28;20063;-57
2021/01/17 12:04:22;;;;;;;1.48;1.30;;;3.30;93.90;;;;;;4971626;28;20486;-57
2021/01/17 12:06:48;;;;;;;1.65;1.23;;;3.20;93.50;;;;;;4979761;28;20045;-57
2021/01/17 12:09:18;;;;;;;3.35;1.95;;;3.20;93.50;;;;;;4980998;28;20110;-57
2021/01/17 12:11:45;;;;;;;4.97;1.90;;;3.30;93.60;;;;;;4978195;28;20081;-57
2021/01/17 12:14:28;;;;;;;2.00;1.80;;;3.30;93.60;;;;;;4988845;28;20027;-57
2021/01/17 12:16:54;;;;;;;3.25;1.80;;;3.20;93.60;;;;;;4978844;28;20018;-56
2021/01/17 12:19:19;;;;;;;1.90;1.70;;;3.30;93.70;;;;;;4970006;28;20015;-58
2021/01/17 12:21:45;;;;;;;1.98;1.48;;;3.30;93.70;;;;;;4965090;28;20031;-57
2021/01/17 12:24:12;;;;;;;1.83;1.40;;;3.30;93.70;;;;;;4949775;28;20035;-57
2021/01/17 12:26:38;;;;;;;1.83;1.58;;;3.30;93.60;;;;;;4938527;28;20055;-58
2021/01/17 12:29:04;;;;;;;1.67;1.35;;;3.30;93.60;;;;;;4985260;28;20066;-57
2021/01/17 12:31:29;;;;;;;2.80;1.55;;;3.30;93.60;;;;;;4987642;28;20484;-58
2021/01/17 12:33:55;;;;;;;2.47;1.80;;;3.30;93.50;;;;;;4959866;28;20079;-58
2021/01/17 12:36:22;;;;;;;1.45;1.35;;;3.30;93.50;;;;;;4958456;28;20024;-57
2021/01/17 12:38:48;;;;;;;1.50;1.40;;;3.30;93.50;;;;;;4970544;28;20035;-57
2021/01/17 12:41:15;;;;;;;2.20;1.50;;;3.30;93.50;;;;;;4976851;28;20106;-58
2021/01/17 12:43:41;;;;;;;2.25;1.48;;;3.30;93.40;;;;;;4982609;28;20044;-57
2021/01/17 12:46:07;;;;;;;1.60;1.50;;;3.40;93.50;;;;;;4966128;28;20045;-57
2021/01/17 12:48:33;;;;;;;1.75;1.63;;;3.30;93.50;;;;;;4983112;28;20030;-56
2021/01/17 12:50:58;;;;;;;1.73;1.63;;;3.30;93.60;;;;;;4979398;28;20483;-58
2021/01/17 12:53:24;;;;;;;1.50;1.15;;;3.40;93.60;;;;;;4964300;28;20118;-57
2021/01/17 12:55:49;;;;;;;2.60;1.67;;;3.40;93.50;;;;;;4988723;28;20572;-58
2021/01/17 12:58:15;;;;;;;1.50;1.20;;;3.40;93.60;;;;;;4968936;28;20027;-57
2021/01/17 13:00:41;;;;;;;2.00;1.42;;;3.30;93.60;;;;;;4987401;28;20023;-57